Wellsburg, North Dakota
Current Conditions -  °F | °C
As of 5:55 AM on Saturday 22 Nov 2014 (Local Time) from K5H4 Reporting Station
Clear Clear  
Wind Chill: -8°   Ceiling: Unl
Heat Index: -4°   Visibility: 10mi
Dew Point: -4°   Wind: 7mph
Humidity: 100%   Direction: 230°SW
Pressure: 29.56"   Gusts: NA
Location:  47.7822°N, 99.8441°W
Report Text: K5H4 221155Z AUTO 23006KT 10SM CLR M04/M04 A2956 RMK AO2
Loading
Personal Weather Stations






























Interactive Weather Map New forecast layout! Learn more

10-Day Weather Forecast

Advertisements
Track Severe Weather on mobile